Terminal Aerodrome Forecast
Issued by NWS

Home | Current Version | Previous Version | Graphics & Text | Print | Product List | Glossary On
Versions: 1 2 3 4 5 6 7 8 9 10 11 12 13
000
FTUS43 KMPX 201120
TAFRWF
TAF
KRWF 201120Z 2012/2112 34007KT 6SM -DZ BR OVC006
     FM201500 31012KT P6SM OVC008
     FM201700 32014G23KT P6SM OVC012
     FM202100 32013G20KT P6SM OVC025
     FM210100 34006KT P6SM BKN035=

USA.gov is the U.S. government's official web portal to all federal, state and local government web resources and services.